Time;durP1;ratioP1;P1;durP2;ratioP2;P2;SDS_P1;SDS_P2;PMS_P1;PMS_P2;Temp;Humidity;BMP_temperature;BMP_pressure;BME280_temperature;BME280_humidity;BME280_pressure;Samples;Min_cycle;Max_cycle;Signal;HPM_P1;HPM_P2
2021/07/29 00:01:41;;;;;;;;;;;24.40;71.60;;;;;;5197915;28;20314;-66
2021/07/29 00:04:13;;;;;;;;;;;24.30;71.50;;;;;;5197910;28;19929;-66
2021/07/29 00:06:46;;;;;;;;;;;24.30;71.60;;;;;;5202054;28;19944;-66
2021/07/29 00:09:18;;;;;;;;;;;24.30;71.40;;;;;;5201145;28;19931;-66
2021/07/29 00:11:50;;;;;;;;;;;24.30;71.50;;;;;;5196503;28;20032;-65
2021/07/29 00:14:22;;;;;;;;;;;24.30;71.40;;;;;;5201629;28;20394;-66
2021/07/29 00:16:59;;;;;;;;;;;24.30;71.40;;;;;;5199567;28;20398;-66
2021/07/29 00:19:31;;;;;;;;;;;24.30;71.50;;;;;;5203628;28;19932;-65
2021/07/29 00:22:03;;;;;;;;;;;24.30;71.30;;;;;;5200367;28;19925;-66
2021/07/29 00:24:36;;;;;;;;;;;24.30;71.30;;;;;;5197631;28;19925;-65
2021/07/29 00:27:08;;;;;;;;;;;24.30;71.30;;;;;;5201365;28;20072;-65
2021/07/29 00:29:40;;;;;;;;;;;24.20;71.20;;;;;;5198138;28;19933;-66
2021/07/29 00:32:12;;;;;;;;;;;24.20;71.10;;;;;;5199415;28;20459;-66
2021/07/29 00:34:44;;;;;;;;;;;24.20;71.20;;;;;;5199900;28;19931;-66
2021/07/29 00:37:16;;;;;;;;;;;24.20;71.30;;;;;;5199849;28;21339;-65
2021/07/29 00:39:55;;;;;;;;;;;24.20;71.20;;;;;;5197212;28;19933;-68
2021/07/29 00:42:27;;;;;;;;;;;24.20;71.20;;;;;;5196901;28;19933;-68
2021/07/29 00:44:59;;;;;;;;;;;24.20;71.20;;;;;;5197744;28;19925;-69
2021/07/29 00:47:32;;;;;;;;;;;24.20;71.10;;;;;;5199081;28;19987;-68
2021/07/29 00:50:05;;;;;;;;;;;24.20;71.00;;;;;;5196088;28;19929;-69
2021/07/29 00:52:38;;;;;;;;;;;24.20;71.00;;;;;;5198520;28;20350;-66
2021/07/29 00:55:10;;;;;;;;;;;24.10;70.70;;;;;;5195801;28;20294;-67
2021/07/29 00:57:43;;;;;;;;;;;24.10;70.70;;;;;;5191754;28;20389;-67
2021/07/29 01:00:16;;;;;;;;;;;24.10;70.70;;;;;;5201190;28;19925;-68
2021/07/29 01:02:48;;;;;;;;;;;24.10;70.60;;;;;;5196029;28;19925;-67
2021/07/29 01:05:21;;;;;;;;;;;24.10;70.60;;;;;;5197172;28;19936;-69
2021/07/29 01:07:56;;;;;;;;;;;24.10;70.40;;;;;;5193253;28;19936;-70
2021/07/29 01:10:28;;;;;;;;;;;24.10;70.40;;;;;;5195061;28;19936;-67
2021/07/29 01:13:00;;;;;;;;;;;24.10;70.30;;;;;;5193869;28;19936;-68
2021/07/29 01:15:32;;;;;;;;;;;24.10;70.20;;;;;;5189750;28;19937;-70
2021/07/29 01:18:05;;;;;;;;;;;24.10;70.20;;;;;;5190072;28;19932;-68
2021/07/29 01:20:37;;;;;;;;;;;24.10;70.20;;;;;;5194304;28;20317;-68
2021/07/29 01:23:09;;;;;;;;;;;24.10;70.20;;;;;;5197484;28;20185;-69
2021/07/29 01:25:41;;;;;;;;;;;24.10;70.10;;;;;;5201949;28;19933;-67
2021/07/29 01:28:14;;;;;;;;;;;24.10;69.90;;;;;;5198370;28;19932;-69
2021/07/29 01:30:46;;;;;;;;;;;24.10;70.00;;;;;;5204358;28;19932;-66
2021/07/29 01:33:18;;;;;;;;;;;24.00;69.90;;;;;;5203222;28;19929;-69
2021/07/29 01:35:50;;;;;;;;;;;24.00;69.90;;;;;;5201310;28;20483;-67
2021/07/29 01:38:23;;;;;;;;;;;24.00;69.90;;;;;;5199979;28;20290;-69
2021/07/29 01:40:55;;;;;;;;;;;24.00;70.00;;;;;;5203305;28;19932;-67
2021/07/29 01:43:27;;;;;;;;;;;24.00;69.80;;;;;;5201096;28;19929;-67
2021/07/29 01:46:00;;;;;;;;;;;24.00;69.70;;;;;;5202133;28;19955;-70
2021/07/29 01:48:33;;;;;;;;;;;24.00;69.70;;;;;;5200811;28;19925;-70
2021/07/29 01:51:05;;;;;;;;;;;24.00;69.70;;;;;;5204494;28;19929;-67
2021/07/29 01:53:37;;;;;;;;;;;24.00;69.70;;;;;;5201250;28;19932;-69
2021/07/29 01:56:09;;;;;;;;;;;23.90;69.60;;;;;;5200797;28;19951;-68
2021/07/29 01:58:42;;;;;;;;;;;23.90;69.70;;;;;;5199838;28;19925;-68
2021/07/29 02:01:20;;;;;;;;;;;23.90;69.70;;;;;;5197416;28;19933;-68
2021/07/29 02:03:53;;;;;;;;;;;23.90;69.60;;;;;;5198444;28;19929;-69
2021/07/29 02:06:25;;;;;;;;;;;23.90;69.60;;;;;;5198836;28;20259;-69
2021/07/29 02:08:57;;;;;;;;;;;23.90;69.60;;;;;;5202102;28;19933;-68
2021/07/29 02:11:31;;;;;;;;;;;23.90;69.60;;;;;;5210387;28;19936;-69
2021/07/29 02:14:05;;;;;;;;;;;23.90;69.70;;;;;;5198783;28;19928;-70
2021/07/29 02:16:40;;;;;;;;;;;23.90;69.70;;;;;;5199404;28;20202;-68
2021/07/29 02:19:13;;;;;;;;;;;23.90;69.70;;;;;;5202278;28;19963;-69
2021/07/29 02:21:45;;;;;;;;;;;23.90;69.80;;;;;;5194857;28;19925;-68
2021/07/29 02:24:17;;;;;;;;;;;23.90;69.90;;;;;;5198033;28;19938;-68
2021/07/29 02:26:49;;;;;;;;;;;23.90;69.80;;;;;;5202230;28;20390;-67
2021/07/29 02:29:21;;;;;;;;;;;23.80;69.80;;;;;;5200734;28;20379;-69
2021/07/29 02:31:53;;;;;;;;;;;23.90;69.90;;;;;;5201447;28;20481;-71
2021/07/29 02:34:35;;;;;;;;;;;23.80;69.90;;;;;;5203796;28;19952;-68
2021/07/29 02:37:07;;;;;;;;;;;23.80;70.00;;;;;;5203871;28;19948;-70
2021/07/29 02:39:40;;;;;;;;;;;23.90;69.90;;;;;;5205224;28;19925;-70
2021/07/29 02:42:13;;;;;;;;;;;23.80;70.00;;;;;;5207576;28;19940;-70
2021/07/29 02:44:45;;;;;;;;;;;23.80;70.00;;;;;;5207275;28;19931;-69
2021/07/29 02:47:17;;;;;;;;;;;23.80;70.00;;;;;;5204848;28;19929;-70
2021/07/29 02:49:49;;;;;;;;;;;23.80;70.00;;;;;;5202353;28;19929;-69
2021/07/29 02:52:22;;;;;;;;;;;23.80;70.00;;;;;;5199833;28;20509;-69
2021/07/29 02:54:54;;;;;;;;;;;23.80;70.00;;;;;;5215035;28;20290;-67
2021/07/29 02:57:26;;;;;;;;;;;23.80;69.90;;;;;;5198344;28;19928;-67
2021/07/29 02:59:59;;;;;;;;;;;23.80;69.90;;;;;;5194757;28;19940;-67
2021/07/29 03:02:31;;;;;;;;;;;23.80;69.90;;;;;;5197973;28;20386;-69
2021/07/29 03:05:03;;;;;;;;;;;23.80;69.90;;;;;;5200991;28;19929;-69
2021/07/29 03:07:36;;;;;;;;;;;23.80;69.80;;;;;;5197429;28;19929;-68
2021/07/29 03:10:08;;;;;;;;;;;23.80;69.80;;;;;;5198972;28;20278;-68
2021/07/29 03:12:40;;;;;;;;;;;23.80;69.80;;;;;;5191471;28;19929;-68
2021/07/29 03:15:12;;;;;;;;;;;23.80;69.80;;;;;;5194593;28;20427;-68
2021/07/29 03:17:45;;;;;;;;;;;23.80;69.70;;;;;;5192650;28;20016;-68
2021/07/29 03:20:18;;;;;;;;;;;23.70;69.60;;;;;;5193166;28;19933;-69
2021/07/29 03:22:50;;;;;;;;;;;23.80;69.70;;;;;;5195809;28;19925;-68
2021/07/29 03:25:23;;;;;;;;;;;23.70;69.50;;;;;;5199596;28;19925;-68
2021/07/29 03:27:55;;;;;;;;;;;23.70;69.60;;;;;;5196640;28;19937;-69
2021/07/29 03:30:27;;;;;;;;;;;23.80;69.60;;;;;;5198356;28;19929;-68
2021/07/29 03:33:00;;;;;;;;;;;23.70;69.40;;;;;;5192090;28;20416;-68
2021/07/29 03:35:33;;;;;;;;;;;23.70;69.40;;;;;;5189949;28;19925;-68
2021/07/29 03:38:05;;;;;;;;;;;23.70;69.40;;;;;;5196503;28;19933;-70
2021/07/29 03:40:38;;;;;;;;;;;23.70;69.40;;;;;;5195309;28;20281;-69
2021/07/29 03:43:10;;;;;;;;;;;23.70;69.40;;;;;;5190186;28;20436;-70
2021/07/29 03:45:44;;;;;;;;;;;23.70;69.50;;;;;;5196524;28;19929;-68
2021/07/29 03:48:18;;;;;;;;;;;23.70;69.30;;;;;;5193294;28;19933;-70
2021/07/29 03:50:50;;;;;;;;;;;23.70;69.40;;;;;;5191632;28;19929;-69
2021/07/29 03:53:23;;;;;;;;;;;23.70;69.60;;;;;;5197918;28;19925;-70
2021/07/29 03:55:55;;;;;;;;;;;23.70;69.30;;;;;;5200728;28;19936;-68
2021/07/29 03:58:27;;;;;;;;;;;23.70;69.30;;;;;;5197303;28;19925;-69
2021/07/29 04:00:59;;;;;;;;;;;23.60;69.30;;;;;;5194286;28;19933;-68
2021/07/29 04:03:32;;;;;;;;;;;23.60;69.30;;;;;;5191629;28;19932;-69
2021/07/29 04:06:04;;;;;;;;;;;23.70;69.30;;;;;;5192054;28;19936;-68
2021/07/29 04:08:36;;;;;;;;;;;23.60;69.30;;;;;;5193571;28;19933;-68
2021/07/29 04:11:08;;;;;;;;;;;23.60;69.30;;;;;;5196235;28;19937;-68
2021/07/29 04:13:40;;;;;;;;;;;23.60;69.30;;;;;;5193771;28;19940;-69
2021/07/29 04:16:13;;;;;;;;;;;23.60;69.30;;;;;;5199210;28;19929;-69
2021/07/29 04:18:45;;;;;;;;;;;23.60;69.30;;;;;;5198894;28;19929;-67
2021/07/29 04:21:17;;;;;;;;;;;23.60;69.20;;;;;;5195539;28;20333;-68
2021/07/29 04:23:49;;;;;;;;;;;23.60;69.40;;;;;;5194156;28;20405;-68
2021/07/29 04:26:21;;;;;;;;;;;23.60;70.00;;;;;;5190183;28;19925;-68
2021/07/29 04:28:54;;;;;;;;;;;23.60;70.30;;;;;;5192282;28;19944;-68
2021/07/29 04:31:26;;;;;;;;;;;23.60;70.40;;;;;;5196601;28;20517;-68
2021/07/29 04:33:58;;;;;;;;;;;23.60;70.00;;;;;;5187091;28;20379;-67
2021/07/29 04:36:30;;;;;;;;;;;23.60;70.10;;;;;;5190273;28;20564;-69
2021/07/29 04:39:04;;;;;;;;;;;23.60;70.10;;;;;;5188379;28;20415;-68
2021/07/29 04:41:40;;;;;;;;;;;23.60;70.20;;;;;;5195882;28;19955;-67
2021/07/29 04:44:13;;;;;;;;;;;23.60;70.30;;;;;;5193040;28;19934;-67
2021/07/29 04:46:46;;;;;;;;;;;23.70;70.30;;;;;;5198993;28;19926;-67
2021/07/29 04:49:20;;;;;;;;;;;23.70;70.30;;;;;;5197242;28;20417;-70
2021/07/29 04:51:52;;;;;;;;;;;23.70;70.40;;;;;;5189635;28;19933;-70
2021/07/29 04:54:24;;;;;;;;;;;23.70;70.40;;;;;;5192026;28;19929;-69
2021/07/29 04:56:57;;;;;;;;;;;23.60;70.40;;;;;;5195952;28;19944;-68
2021/07/29 04:59:29;;;;;;;;;;;23.70;70.50;;;;;;5185316;28;19936;-68
2021/07/29 05:02:01;;;;;;;;;;;23.60;70.60;;;;;;5192848;28;19935;-68
2021/07/29 05:04:34;;;;;;;;;;;23.70;70.20;;;;;;5190859;28;19940;-69
2021/07/29 05:07:06;;;;;;;;;;;23.60;69.30;;;;;;5203470;28;19932;-68
2021/07/29 05:09:38;;;;;;;;;;;23.60;68.90;;;;;;5187054;28;19933;-68
2021/07/29 05:12:10;;;;;;;;;;;23.50;68.70;;;;;;5183011;28;20293;-69
2021/07/29 05:14:42;;;;;;;;;;;23.40;68.80;;;;;;5186185;28;19933;-68
2021/07/29 05:17:15;;;;;;;;;;;23.30;69.00;;;;;;5177014;28;20275;-68
2021/07/29 05:19:47;;;;;;;;;;;23.20;69.30;;;;;;5186301;28;20164;-69
2021/07/29 05:22:19;;;;;;;;;;;23.20;69.70;;;;;;5182489;28;19932;-70
2021/07/29 05:24:53;;;;;;;;;;;23.10;70.10;;;;;;5183784;28;22268;-73
2021/07/29 05:27:26;;;;;;;;;;;23.00;70.30;;;;;;5174157;28;19947;-76
2021/07/29 05:29:59;;;;;;;;;;;22.90;70.60;;;;;;5175389;28;19943;-72
2021/07/29 05:32:33;;;;;;;;;;;22.90;70.70;;;;;;5174493;28;19933;-74
2021/07/29 05:35:05;;;;;;;;;;;22.90;71.00;;;;;;5179777;28;20394;-73
2021/07/29 05:37:38;;;;;;;;;;;23.00;71.30;;;;;;5168738;28;19929;-74
2021/07/29 05:40:10;;;;;;;;;;;23.00;71.20;;;;;;5177068;28;19936;-74
2021/07/29 05:42:42;;;;;;;;;;;23.10;71.10;;;;;;5189429;28;19940;-74
2021/07/29 05:45:14;;;;;;;;;;;23.10;71.00;;;;;;5174884;28;19933;-74
2021/07/29 05:47:47;;;;;;;;;;;23.20;71.80;;;;;;5177062;28;20761;-74
2021/07/29 05:50:19;;;;;;;;;;;23.20;71.30;;;;;;5184178;28;19971;-74
2021/07/29 05:52:51;;;;;;;;;;;23.30;71.00;;;;;;5192438;28;19933;-74
2021/07/29 05:55:24;;;;;;;;;;;23.40;70.80;;;;;;5177841;28;20381;-73
2021/07/29 05:57:58;;;;;;;;;;;23.40;70.80;;;;;;5172260;28;20306;-73
2021/07/29 06:00:30;;;;;;;;;;;23.50;70.70;;;;;;5180400;28;20385;-74
2021/07/29 06:03:03;;;;;;;;;;;23.60;70.60;;;;;;5164921;28;19928;-73
2021/07/29 06:05:35;;;;;;;;;;;23.60;70.60;;;;;;5177667;28;20409;-72
2021/07/29 06:08:08;;;;;;;;;;;23.70;70.50;;;;;;5171761;28;20513;-75
2021/07/29 06:10:40;;;;;;;;;;;23.80;70.50;;;;;;5166744;28;19929;-72
2021/07/29 06:13:12;;;;;;;;;;;23.80;70.30;;;;;;5183156;28;20454;-73
2021/07/29 06:15:44;;;;;;;;;;;23.80;70.20;;;;;;5184183;28;19928;-73
2021/07/29 06:18:17;;;;;;;;;;;23.90;70.20;;;;;;5169994;28;19929;-74
2021/07/29 06:20:49;;;;;;;;;;;23.90;70.00;;;;;;5178097;28;19936;-73
2021/07/29 06:23:21;;;;;;;;;;;23.90;70.10;;;;;;5168907;28;19942;-72
2021/07/29 06:25:53;;;;;;;;;;;23.90;70.20;;;;;;5174831;28;19932;-72
2021/07/29 06:28:31;;;;;;;;;;;23.90;70.00;;;;;;5183349;28;20442;-73
2021/07/29 06:31:04;;;;;;;;;;;23.80;69.90;;;;;;5190034;28;19928;-74
2021/07/29 06:33:36;;;;;;;;;;;23.80;70.20;;;;;;5187389;28;19933;-73
2021/07/29 06:36:08;;;;;;;;;;;23.80;70.30;;;;;;5187615;28;19936;-74
2021/07/29 06:38:40;;;;;;;;;;;23.80;70.20;;;;;;5191186;28;19939;-72
2021/07/29 06:41:12;;;;;;;;;;;23.80;70.10;;;;;;5187340;28;19940;-74
2021/07/29 06:43:45;;;;;;;;;;;23.70;70.20;;;;;;5181929;28;20625;-72
2021/07/29 06:46:17;;;;;;;;;;;23.80;70.20;;;;;;5183156;28;19929;-73
2021/07/29 06:48:49;;;;;;;;;;;23.70;70.20;;;;;;5182800;28;20479;-74
2021/07/29 06:51:21;;;;;;;;;;;23.70;70.20;;;;;;5179454;28;19928;-73
2021/07/29 06:53:53;;;;;;;;;;;23.70;70.40;;;;;;5184070;28;19933;-70
2021/07/29 06:56:26;;;;;;;;;;;23.70;70.40;;;;;;5199255;28;19941;-68
2021/07/29 06:58:58;;;;;;;;;;;23.80;70.70;;;;;;5201632;28;20292;-69
2021/07/29 07:01:30;;;;;;;;;;;23.80;71.00;;;;;;5204393;28;19925;-68
2021/07/29 07:04:02;;;;;;;;;;;23.80;71.10;;;;;;5200354;28;19929;-67
2021/07/29 07:06:38;;;;;;;;;;;23.90;71.10;;;;;;5207283;28;20083;-69
2021/07/29 07:09:10;;;;;;;;;;;23.90;71.10;;;;;;5194233;28;19948;-69
2021/07/29 07:11:42;;;;;;;;;;;23.90;71.20;;;;;;5194442;28;19947;-69
2021/07/29 07:14:14;;;;;;;;;;;24.00;71.40;;;;;;5200636;28;20465;-69
2021/07/29 07:16:47;;;;;;;;;;;24.00;71.50;;;;;;5204393;28;19933;-69
2021/07/29 07:19:20;;;;;;;;;;;24.00;71.50;;;;;;5204899;28;20409;-69
2021/07/29 07:21:52;;;;;;;;;;;24.00;71.60;;;;;;5206073;28;19932;-69
2021/07/29 07:24:24;;;;;;;;;;;24.00;71.70;;;;;;5197786;28;19929;-68
2021/07/29 07:26:56;;;;;;;;;;;24.00;71.80;;;;;;5204958;28;19940;-69
2021/07/29 07:29:28;;;;;;;;;;;24.00;71.80;;;;;;5205188;28;19932;-68
2021/07/29 07:32:01;;;;;;;;;;;24.00;71.80;;;;;;5203077;28;19925;-69
2021/07/29 07:34:34;;;;;;;;;;;24.00;71.80;;;;;;5203532;28;19932;-69
2021/07/29 07:37:06;;;;;;;;;;;24.00;71.90;;;;;;5199227;28;19925;-69
2021/07/29 07:39:38;;;;;;;;;;;24.00;71.90;;;;;;5204685;28;19936;-68
2021/07/29 07:42:11;;;;;;;;;;;24.00;72.00;;;;;;5200955;28;20440;-69
2021/07/29 07:44:43;;;;;;;;;;;24.00;72.00;;;;;;5205776;28;19929;-69
2021/07/29 07:47:16;;;;;;;;;;;24.00;72.00;;;;;;5202273;28;19925;-69
2021/07/29 07:49:48;;;;;;;;;;;24.10;72.10;;;;;;5201833;28;19929;-69
2021/07/29 07:52:20;;;;;;;;;;;24.10;72.20;;;;;;5198569;28;19933;-69
2021/07/29 07:54:52;;;;;;;;;;;24.10;72.20;;;;;;5199753;28;19932;-69
2021/07/29 07:57:24;;;;;;;;;;;24.10;72.90;;;;;;5195799;28;19932;-69
2021/07/29 07:59:58;;;;;;;;;;;24.10;72.40;;;;;;5197844;28;19925;-69
2021/07/29 08:02:30;;;;;;;;;;;24.10;72.60;;;;;;5192633;28;19928;-70
2021/07/29 08:05:03;;;;;;;;;;;24.10;72.70;;;;;;5194846;28;19929;-69
2021/07/29 08:07:35;;;;;;;;;;;24.10;72.70;;;;;;5186971;28;20405;-69
2021/07/29 08:10:08;;;;;;;;;;;24.10;72.80;;;;;;5186783;28;20370;-69
2021/07/29 08:12:40;;;;;;;;;;;24.10;72.90;;;;;;5190405;28;19940;-69
2021/07/29 08:15:13;;;;;;;;;;;24.10;72.90;;;;;;5193914;28;19941;-69
2021/07/29 08:17:45;;;;;;;;;;;24.10;72.90;;;;;;5192864;28;20397;-68
2021/07/29 08:20:18;;;;;;;;;;;24.10;72.90;;;;;;5201391;28;20409;-69
2021/07/29 08:22:51;;;;;;;;;;;24.10;72.90;;;;;;5199538;28;19952;-68
2021/07/29 08:25:24;;;;;;;;;;;24.10;72.90;;;;;;5197920;28;19933;-69
2021/07/29 08:27:56;;;;;;;;;;;24.20;72.90;;;;;;5199673;28;19925;-68
2021/07/29 08:30:28;;;;;;;;;;;24.20;72.90;;;;;;5196115;28;19951;-68
2021/07/29 08:33:07;;;;;;;;;;;24.20;72.90;;;;;;5198310;28;20323;-68
2021/07/29 08:35:40;;;;;;;;;;;24.20;72.80;;;;;;5199989;28;19937;-69
2021/07/29 08:38:12;;;;;;;;;;;24.20;72.70;;;;;;5191712;28;19932;-69
2021/07/29 08:40:44;;;;;;;;;;;24.20;72.70;;;;;;5196376;28;19936;-69
2021/07/29 08:43:16;;;;;;;;;;;24.20;72.60;;;;;;5203798;28;20008;-69
2021/07/29 08:45:52;;;;;;;;;;;24.20;72.60;;;;;;5195338;28;19939;-68
2021/07/29 08:48:28;;;;;;;;;;;24.20;72.50;;;;;;5198318;28;20381;-68
2021/07/29 08:51:01;;;;;;;;;;;24.20;72.50;;;;;;5202931;28;19933;-69
2021/07/29 08:53:33;;;;;;;;;;;24.20;72.40;;;;;;5202955;28;20274;-68
2021/07/29 08:56:05;;;;;;;;;;;24.20;72.30;;;;;;5195230;28;20381;-68
2021/07/29 08:58:37;;;;;;;;;;;24.20;72.20;;;;;;5201969;28;20313;-68
2021/07/29 09:01:11;;;;;;;;;;;24.20;72.20;;;;;;5193724;28;19925;-68
2021/07/29 09:03:44;;;;;;;;;;;24.20;72.20;;;;;;5201744;28;20063;-68
2021/07/29 09:06:17;;;;;;;;;;;24.20;72.80;;;;;;5193911;28;19940;-68
2021/07/29 09:08:52;;;;;;;;;;;24.30;72.30;;;;;;5197326;28;19925;-68
2021/07/29 09:11:27;;;;;;;;;;;24.20;72.20;;;;;;5200539;28;20428;-68
2021/07/29 09:14:02;;;;;;;;;;;24.20;72.20;;;;;;5200021;28;19934;-68
2021/07/29 09:16:37;;;;;;;;;;;24.30;72.30;;;;;;5200178;28;21845;-68
2021/07/29 09:19:25;;;;;;;;;;;24.30;72.30;;;;;;5194504;28;19925;-69
2021/07/29 09:22:26;;;;;;;;;;;24.30;72.30;;;;;;5192528;28;19940;-68
2021/07/29 09:25:04;;;;;;;;;;;24.20;72.30;;;;;;5177579;28;19933;-69
2021/07/29 09:27:39;;;;;;;;;;;24.30;72.70;;;;;;5200270;28;19944;-69
2021/07/29 09:30:11;;;;;;;;;;;24.30;72.80;;;;;;5196081;28;19936;-69
2021/07/29 09:33:04;;;;;;;;;;;24.30;72.90;;;;;;5205356;28;19933;-69
2021/07/29 09:35:39;;;;;;;;;;;24.30;73.10;;;;;;5197535;28;19928;-69
2021/07/29 09:38:31;;;;;;;;;;;24.30;73.20;;;;;;5195527;28;20286;-69
2021/07/29 09:41:06;;;;;;;;;;;24.30;73.20;;;;;;5187322;28;19929;-68
2021/07/29 09:43:38;;;;;;;;;;;24.30;73.20;;;;;;5180149;28;20428;-69
2021/07/29 09:46:18;;;;;;;;;;;24.30;73.20;;;;;;5191046;28;19933;-69
2021/07/29 09:48:50;;;;;;;;;;;24.30;73.10;;;;;;5190026;28;19933;-69
2021/07/29 09:51:23;;;;;;;;;;;24.30;73.00;;;;;;5194109;28;19965;-68
2021/07/29 09:53:57;;;;;;;;;;;24.30;73.00;;;;;;4492566;28;10000219;-69
2021/07/29 09:56:29;;;;;;;;;;;24.30;73.00;;;;;;5172287;28;19937;-69
2021/07/29 09:59:19;;;;;;;;;;;24.30;73.00;;;;;;5191931;28;22011;-69
2021/07/29 10:01:52;;;;;;;;;;;24.30;73.00;;;;;;5184511;28;19928;-69
2021/07/29 10:04:26;;;;;;;;;;;24.30;72.90;;;;;;5191458;28;19940;-69
2021/07/29 10:07:00;;;;;;;;;;;24.30;72.90;;;;;;5190941;28;20382;-69
2021/07/29 10:09:35;;;;;;;;;;;24.30;72.90;;;;;;5200913;28;19932;-68
2021/07/29 10:12:07;;;;;;;;;;;24.40;73.00;;;;;;5195776;28;19929;-68
2021/07/29 10:14:47;;;;;;;;;;;24.40;73.00;;;;;;5195027;28;20089;-69
2021/07/29 10:17:34;;;;;;;;;;;24.40;73.10;;;;;;5181703;28;19936;-69
2021/07/29 10:20:23;;;;;;;;;;;24.40;73.00;;;;;;5196452;28;19925;-69
2021/07/29 10:23:13;;;;;;;;;;;24.40;73.10;;;;;;5197058;28;19932;-69
2021/07/29 10:25:51;;;;;;;;;;;24.40;73.00;;;;;;5197053;28;19929;-69
2021/07/29 10:28:24;;;;;;;;;;;24.40;73.00;;;;;;5196629;28;19951;-70
2021/07/29 10:30:58;;;;;;;;;;;24.40;73.00;;;;;;5195737;28;19928;-69
2021/07/29 10:33:30;;;;;;;;;;;24.40;73.00;;;;;;5195821;28;19929;-69
2021/07/29 10:36:03;;;;;;;;;;;24.40;73.00;;;;;;5202663;28;19925;-69
2021/07/29 10:38:35;;;;;;;;;;;24.40;73.00;;;;;;5199913;28;19933;-69
2021/07/29 10:41:10;;;;;;;;;;;24.40;73.00;;;;;;5198577;28;19933;-68
2021/07/29 10:43:42;;;;;;;;;;;24.40;72.90;;;;;;5200035;28;19929;-69
2021/07/29 10:46:15;;;;;;;;;;;24.40;73.00;;;;;;5205912;28;19933;-69
2021/07/29 10:48:52;;;;;;;;;;;24.40;72.90;;;;;;5200590;28;19965;-69
2021/07/29 10:51:25;;;;;;;;;;;24.40;72.90;;;;;;5202461;28;19933;-68
2021/07/29 10:53:57;;;;;;;;;;;24.50;72.90;;;;;;5198746;28;19936;-69
2021/07/29 10:56:29;;;;;;;;;;;24.50;72.90;;;;;;5198932;28;19926;-68
2021/07/29 10:59:01;;;;;;;;;;;24.40;72.80;;;;;;5199294;28;19936;-68
2021/07/29 11:01:47;;;;;;;;;;;24.50;72.90;;;;;;5194719;28;19932;-69
2021/07/29 11:04:53;;;;;;;;;;;24.50;72.90;;;;;;5177961;28;19940;-70
2021/07/29 11:07:25;;;;;;;;;;;24.50;73.00;;;;;;5178264;28;19936;-69
2021/07/29 11:10:02;;;;;;;;;;;24.50;73.10;;;;;;5190990;28;19933;-70
2021/07/29 11:12:35;;;;;;;;;;;24.50;73.20;;;;;;5194781;28;20309;-70
2021/07/29 11:15:08;;;;;;;;;;;24.50;73.20;;;;;;5189051;28;19928;-70
2021/07/29 11:17:41;;;;;;;;;;;24.50;73.20;;;;;;5182599;28;19933;-69
2021/07/29 11:20:13;;;;;;;;;;;24.50;73.20;;;;;;5185603;28;20301;-69
2021/07/29 11:22:46;;;;;;;;;;;24.60;73.20;;;;;;5184761;28;20421;-70
2021/07/29 11:25:18;;;;;;;;;;;24.60;73.20;;;;;;5183738;28;19940;-70
2021/07/29 11:27:51;;;;;;;;;;;24.60;73.20;;;;;;5184896;28;21103;-70
2021/07/29 11:30:39;;;;;;;;;;;24.60;73.30;;;;;;5179652;28;23402;-70
2021/07/29 11:33:18;;;;;;;;;;;24.60;73.20;;;;;;5190248;28;19940;-70
2021/07/29 11:35:50;;;;;;;;;;;24.60;73.20;;;;;;5192588;28;19937;-70
2021/07/29 11:38:24;;;;;;;;;;;24.60;73.20;;;;;;5183486;28;19940;-70
2021/07/29 11:41:00;;;;;;;;;;;24.60;73.20;;;;;;5175863;28;19939;-70
2021/07/29 11:43:33;;;;;;;;;;;24.60;73.20;;;;;;5191257;28;19940;-70
2021/07/29 11:46:05;;;;;;;;;;;24.70;73.20;;;;;;5191482;28;19938;-70
2021/07/29 11:48:38;;;;;;;;;;;24.70;73.10;;;;;;5187791;28;19925;-70
2021/07/29 11:51:14;;;;;;;;;;;24.70;73.10;;;;;;5189500;28;19932;-70
2021/07/29 11:53:46;;;;;;;;;;;24.70;73.10;;;;;;5193928;28;19929;-70
2021/07/29 11:56:18;;;;;;;;;;;24.70;73.10;;;;;;5190025;28;20496;-70
2021/07/29 11:58:58;;;;;;;;;;;24.80;73.10;;;;;;5183059;28;19932;-69
2021/07/29 12:01:30;;;;;;;;;;;24.80;73.10;;;;;;5191121;28;19932;-70
2021/07/29 12:04:02;;;;;;;;;;;24.80;73.10;;;;;;5194767;28;19929;-70
2021/07/29 12:06:35;;;;;;;;;;;24.80;73.10;;;;;;5210989;28;19939;-70
2021/07/29 12:09:07;;;;;;;;;;;24.80;73.10;;;;;;5190181;28;19932;-70
2021/07/29 12:11:39;;;;;;;;;;;24.90;73.10;;;;;;5189718;28;19940;-70
2021/07/29 12:14:13;;;;;;;;;;;24.80;73.00;;;;;;5185863;28;19943;-70
2021/07/29 12:16:45;;;;;;;;;;;24.90;73.00;;;;;;5188855;28;19933;-70
2021/07/29 12:19:19;;;;;;;;;;;24.90;73.10;;;;;;5186295;28;19936;-70
2021/07/29 12:21:52;;;;;;;;;;;24.90;73.70;;;;;;5189968;28;19924;-70
2021/07/29 12:24:43;;;;;;;;;;;24.90;73.00;;;;;;5188820;28;19951;-70
2021/07/29 12:27:18;;;;;;;;;;;24.90;73.00;;;;;;5179122;28;19943;-70
2021/07/29 12:29:51;;;;;;;;;;;25.00;73.00;;;;;;5176732;28;19939;-70
2021/07/29 12:32:29;;;;;;;;;;;25.00;73.00;;;;;;5182101;28;20188;-71
2021/07/29 12:35:02;;;;;;;;;;;25.00;73.00;;;;;;5183665;28;19933;-70
2021/07/29 12:37:35;;;;;;;;;;;25.00;72.90;;;;;;5185420;28;19929;-69
2021/07/29 12:40:24;;;;;;;;;;;25.00;72.90;;;;;;5181502;28;21092;-67
2021/07/29 12:43:15;;;;;;;;;;;25.00;72.90;;;;;;5171428;28;19929;-68
2021/07/29 12:45:50;;;;;;;;;;;25.00;72.90;;;;;;5174994;28;20557;-67
2021/07/29 12:48:22;;;;;;;;;;;25.00;72.80;;;;;;5162622;28;19940;-67
2021/07/29 12:50:55;;;;;;;;;;;25.00;72.80;;;;;;5169417;28;19932;-68
2021/07/29 12:53:28;;;;;;;;;;;25.00;72.80;;;;;;4467204;28;10000602;-68
2021/07/29 12:56:13;;;;;;;;;;;25.10;72.70;;;;;;5170781;28;20321;-67
2021/07/29 12:58:47;;;;;;;;;;;25.00;72.60;;;;;;5178705;28;19940;-68
2021/07/29 13:01:20;;;;;;;;;;;25.00;72.50;;;;;;5174452;28;19932;-68
2021/07/29 13:03:52;;;;;;;;;;;25.10;72.50;;;;;;5176729;28;20325;-67
2021/07/29 13:06:25;;;;;;;;;;;25.10;72.50;;;;;;5176894;28;19967;-68
2021/07/29 13:08:57;;;;;;;;;;;25.10;72.50;;;;;;5179549;28;21162;-68
2021/07/29 13:11:29;;;;;;;;;;;25.10;72.50;;;;;;5180297;28;20350;-68
2021/07/29 13:14:02;;;;;;;;;;;25.10;72.40;;;;;;5184136;28;19940;-67
2021/07/29 13:16:34;;;;;;;;;;;25.10;72.50;;;;;;5181590;28;20549;-66
2021/07/29 13:19:06;;;;;;;;;;;25.10;72.40;;;;;;5179581;28;19924;-66
2021/07/29 13:21:39;;;;;;;;;;;25.20;72.50;;;;;;5179051;28;19932;-66
2021/07/29 13:24:11;;;;;;;;;;;25.10;72.40;;;;;;5171698;28;20406;-66
2021/07/29 13:26:43;;;;;;;;;;;25.20;72.30;;;;;;5197630;28;19939;-66
2021/07/29 13:29:15;;;;;;;;;;;25.20;72.20;;;;;;5193716;28;19941;-66
2021/07/29 13:31:48;;;;;;;;;;;25.20;72.20;;;;;;5190733;28;19932;-66
2021/07/29 13:34:22;;;;;;;;;;;25.20;72.10;;;;;;5192834;28;20302;-66
2021/07/29 13:40:18;;;;;;;;;;;25.20;72.00;;;;;;5179152;28;20727;-66
2021/07/29 13:42:51;;;;;;;;;;;25.20;71.90;;;;;;5180250;28;19932;-66
2021/07/29 13:45:24;;;;;;;;;;;25.20;71.90;;;;;;5183160;28;20685;-64
2021/07/29 13:47:58;;;;;;;;;;;25.20;71.80;;;;;;5193811;28;19933;-64
2021/07/29 13:50:31;;;;;;;;;;;25.20;71.80;;;;;;5194740;28;19948;-64
2021/07/29 13:53:03;;;;;;;;;;;25.20;71.70;;;;;;5191277;28;19951;-64
2021/07/29 13:55:35;;;;;;;;;;;25.20;71.80;;;;;;5192703;28;19932;-66
2021/07/29 13:58:08;;;;;;;;;;;25.20;71.70;;;;;;5191426;28;19933;-66
2021/07/29 14:00:40;;;;;;;;;;;25.20;71.70;;;;;;5193894;28;19925;-67
2021/07/29 14:03:12;;;;;;;;;;;25.20;71.70;;;;;;5191727;28;19929;-67
2021/07/29 14:05:45;;;;;;;;;;;25.30;71.70;;;;;;5193592;28;19932;-66
2021/07/29 14:08:17;;;;;;;;;;;25.20;71.60;;;;;;5180791;28;22070;-66
2021/07/29 14:10:49;;;;;;;;;;;25.20;71.60;;;;;;5193607;28;20443;-66
2021/07/29 14:13:22;;;;;;;;;;;25.20;71.60;;;;;;5191802;28;19926;-66
2021/07/29 14:15:56;;;;;;;;;;;25.20;71.60;;;;;;5199907;28;19929;-66
2021/07/29 14:18:28;;;;;;;;;;;25.20;71.60;;;;;;5197007;28;19932;-67
2021/07/29 14:21:12;;;;;;;;;;;25.20;71.60;;;;;;5187990;28;19928;-66
2021/07/29 14:23:44;;;;;;;;;;;25.20;71.60;;;;;;5189210;28;19929;-66
2021/07/29 14:26:16;;;;;;;;;;;25.20;71.60;;;;;;5201222;28;19940;-66
2021/07/29 14:28:49;;;;;;;;;;;25.20;71.60;;;;;;5192878;28;19941;-67
2021/07/29 14:31:21;;;;;;;;;;;25.20;71.60;;;;;;5173765;28;20893;-66
2021/07/29 14:33:53;;;;;;;;;;;25.20;71.60;;;;;;5169626;28;19959;-67
2021/07/29 14:36:25;;;;;;;;;;;25.20;71.70;;;;;;5192019;28;19948;-66
2021/07/29 14:38:58;;;;;;;;;;;25.20;72.00;;;;;;5184530;28;19933;-66
2021/07/29 14:41:30;;;;;;;;;;;25.20;72.10;;;;;;5176810;28;20530;-66
2021/07/29 14:44:02;;;;;;;;;;;25.20;72.20;;;;;;5177514;28;20375;-66
2021/07/29 14:49:14;;;;;;;;;;;25.20;72.40;;;;;;5199953;28;19929;-66
2021/07/29 14:51:53;;;;;;;;;;;25.20;72.40;;;;;;5196721;28;19936;-66
2021/07/29 14:54:31;;;;;;;;;;;25.20;72.50;;;;;;5189231;28;19929;-66
2021/07/29 14:57:10;;;;;;;;;;;25.20;72.60;;;;;;5193366;28;20447;-66
2021/07/29 16:08:03;;;;;;;;;;;25.20;72.10;;;;;;5201342;28;19929;-66